createdAt,value
2024-04-14T00:00:36.059Z,1014.40
2024-04-14T00:01:36.357Z,1014.43
2024-04-14T00:02:36.764Z,1014.53
2024-04-14T00:03:37.149Z,1014.47
2024-04-14T00:04:37.620Z,1014.49
2024-04-14T00:05:37.864Z,1014.52
2024-04-14T00:06:38.205Z,1014.44
2024-04-14T00:07:38.560Z,1014.49
2024-04-14T00:08:38.899Z,1014.46
2024-04-14T00:09:39.293Z,1014.45
2024-04-14T00:10:39.624Z,1014.41
2024-04-14T00:11:40.011Z,1014.40
2024-04-14T00:12:40.392Z,1014.46
2024-04-14T00:13:40.706Z,1014.45
2024-04-14T00:14:41.065Z,1014.51
2024-04-14T00:15:41.540Z,1014.53
2024-04-14T00:16:41.796Z,1014.49
2024-04-14T00:17:42.270Z,1014.51
2024-04-14T00:18:42.616Z,1014.51
2024-04-14T00:19:42.868Z,1014.43
2024-04-14T00:20:43.249Z,1014.45
2024-04-14T00:21:43.674Z,1014.49
2024-04-14T00:22:43.989Z,1014.50
2024-04-14T00:23:44.366Z,1014.50
2024-04-14T00:24:44.719Z,1014.56
2024-04-14T00:25:45.078Z,1014.55
2024-04-14T00:26:45.456Z,1014.61
2024-04-14T00:27:45.859Z,1014.55
2024-04-14T00:28:46.177Z,1014.56
2024-04-14T00:29:46.537Z,1014.52
2024-04-14T00:30:46.913Z,1014.53
2024-04-14T00:31:47.259Z,1014.49
2024-04-14T00:32:47.739Z,1014.48
2024-04-14T00:33:48.085Z,1014.44
2024-04-14T00:34:48.361Z,1014.41
2024-04-14T00:35:48.725Z,1014.41
2024-04-14T00:36:49.160Z,1014.31
2024-04-14T00:37:49.477Z,1014.34
2024-04-14T00:38:49.843Z,1014.37
2024-04-14T00:39:50.293Z,1014.33
2024-04-14T00:40:50.541Z,1014.32
2024-04-14T00:41:50.905Z,1014.35
2024-04-14T00:42:51.346Z,1014.38
2024-04-14T00:43:51.640Z,1014.40
2024-04-14T00:44:52.003Z,1014.47
2024-04-14T00:45:52.479Z,1014.49
2024-04-14T00:46:52.743Z,1014.31
2024-04-14T00:47:53.153Z,1014.31
2024-04-14T00:48:53.460Z,1014.28
2024-04-14T00:49:53.757Z,1014.40
2024-04-14T00:50:54.168Z,1014.36
2024-04-14T00:51:54.593Z,1014.47
2024-04-14T00:52:54.885Z,1014.49
2024-04-14T00:53:55.212Z,1014.50
2024-04-14T00:54:55.589Z,1014.53
2024-04-14T00:55:55.924Z,1014.55
2024-04-14T00:56:56.296Z,1014.44
2024-04-14T00:57:56.757Z,1014.57
2024-04-14T00:58:57.015Z,1014.59
2024-04-14T00:59:57.404Z,1014.55
2024-04-14T01:00:57.850Z,1014.51
2024-04-14T01:01:58.095Z,1014.52
2024-04-14T01:02:58.496Z,1014.55
2024-04-14T01:03:58.949Z,1014.63
2024-04-14T01:04:59.172Z,1014.57
2024-04-14T01:05:59.516Z,1014.57
2024-04-14T01:06:59.928Z,1014.68
2024-04-14T01:08:00.264Z,1014.55
2024-04-14T01:09:00.616Z,1014.60
2024-04-14T01:10:01.077Z,1014.57
2024-04-14T01:11:01.391Z,1014.59
2024-04-14T01:12:01.670Z,1014.65
2024-04-14T01:13:02.129Z,1014.69
2024-04-14T01:14:02.379Z,1014.63
2024-04-14T01:15:02.739Z,1014.66
2024-04-14T01:16:03.159Z,1014.80
2024-04-14T01:17:03.501Z,1014.71
2024-04-14T01:18:03.986Z,1014.71
2024-04-14T01:19:04.331Z,1014.68
2024-04-14T01:20:04.542Z,1014.69
2024-04-14T01:21:04.903Z,1014.66
2024-04-14T01:22:05.307Z,1014.63
2024-04-14T01:23:05.673Z,1014.69
2024-04-14T01:24:05.999Z,1014.69
2024-04-14T01:25:06.842Z,1014.63
2024-04-14T01:26:06.702Z,1014.65
2024-04-14T01:27:07.084Z,1014.68
2024-04-14T01:28:07.459Z,1014.61
2024-04-14T01:29:07.786Z,1014.73
2024-04-14T01:30:08.146Z,1014.79
2024-04-14T01:31:08.511Z,1014.75
2024-04-14T01:32:08.958Z,1014.75
2024-04-14T01:33:09.293Z,1014.73
2024-04-14T01:34:09.567Z,1014.78
2024-04-14T01:35:09.943Z,1014.77
2024-04-14T01:36:10.308Z,1014.77
2024-04-14T01:37:10.679Z,1014.78
2024-04-14T01:38:19.169Z,1014.77
2024-04-14T01:39:11.407Z,1014.72
2024-04-14T01:40:11.760Z,1014.77
2024-04-14T01:41:12.117Z,1014.79
2024-04-14T01:42:12.476Z,1014.79
2024-04-14T01:43:12.874Z,1014.73
2024-04-14T01:44:13.203Z,1014.73
2024-04-14T01:45:13.571Z,1014.67
2024-04-14T01:46:13.945Z,1014.69
2024-04-14T01:47:14.301Z,1014.63
2024-04-14T01:48:14.772Z,1014.61
2024-04-14T01:49:15.096Z,1014.63
2024-04-14T01:50:15.432Z,1014.59
2024-04-14T01:51:15.779Z,1014.56
2024-04-14T01:52:16.154Z,1014.61
2024-04-14T01:53:16.511Z,1014.68
2024-04-14T01:54:16.849Z,1014.63
2024-04-14T01:55:17.200Z,1014.70
2024-04-14T01:56:17.541Z,1014.69
2024-04-14T01:57:17.918Z,1014.71
2024-04-14T01:58:18.288Z,1014.66
2024-04-14T01:59:18.625Z,1014.70
2024-04-14T02:00:18.994Z,1014.74
2024-04-14T02:01:19.402Z,1014.81
2024-04-14T02:02:19.728Z,1014.79
2024-04-14T02:03:20.161Z,1014.90
2024-04-14T02:04:20.655Z,1014.74
2024-04-14T02:05:20.795Z,1014.86
2024-04-14T02:06:21.176Z,1014.83
2024-04-14T02:07:21.529Z,1014.91
2024-04-14T02:08:21.908Z,1014.86
2024-04-14T02:09:22.284Z,1015.02
2024-04-14T02:10:22.612Z,1015.11
2024-04-14T02:11:22.963Z,1015.07
2024-04-14T02:12:23.334Z,1015.06
2024-04-14T02:13:23.740Z,1015.17
2024-04-14T02:14:24.018Z,1015.11
2024-04-14T02:15:24.422Z,1015.09
2024-04-14T02:16:24.725Z,1015.15
2024-04-14T02:17:25.120Z,1015.12
2024-04-14T02:18:25.657Z,1015.17
2024-04-14T02:19:25.820Z,1015.19
2024-04-14T02:20:26.194Z,1015.32
2024-04-14T02:21:26.588Z,1015.25
2024-04-14T02:22:26.936Z,1015.26
2024-04-14T02:23:27.324Z,1015.38
2024-04-14T02:24:27.667Z,1015.40
2024-04-14T02:25:28.029Z,1015.36
2024-04-14T02:26:28.380Z,1015.38
2024-04-14T02:27:28.824Z,1015.42
2024-04-14T02:28:29.144Z,1015.44
2024-04-14T02:29:29.488Z,1015.50
2024-04-14T02:30:29.880Z,1015.44
2024-04-14T02:31:30.191Z,1015.48
2024-04-14T02:32:30.609Z,1015.49
2024-04-14T02:33:30.926Z,1015.42
2024-04-14T02:34:31.247Z,1015.47
2024-04-14T02:35:31.604Z,1015.44
2024-04-14T02:36:32.008Z,1015.45
2024-04-14T02:37:32.303Z,1015.56
2024-04-14T02:38:32.703Z,1015.58
2024-04-14T02:39:33.049Z,1015.49
2024-04-14T02:40:33.391Z,1015.57
2024-04-14T02:41:33.753Z,1015.52
2024-04-14T02:42:34.286Z,1015.50
2024-04-14T02:43:34.645Z,1015.51
2024-04-14T02:44:34.830Z,1015.58
2024-04-14T02:45:35.201Z,1015.49
2024-04-14T02:46:35.571Z,1015.49
2024-04-14T02:47:35.990Z,1015.50
2024-04-14T02:48:36.399Z,1015.51
2024-04-14T02:49:36.657Z,1015.53
2024-04-14T02:50:37.029Z,1015.58
2024-04-14T02:51:37.411Z,1015.64
2024-04-14T02:52:37.755Z,1015.67
2024-04-14T02:53:38.136Z,1015.66
2024-04-14T02:54:38.500Z,1015.62
2024-04-14T02:55:38.807Z,1015.74
2024-04-14T02:56:39.168Z,1015.65
2024-04-14T02:57:39.566Z,1015.61
2024-04-14T02:58:39.949Z,1015.75
2024-04-14T02:59:40.261Z,1015.78
2024-04-14T03:00:40.678Z,1015.70
2024-04-14T03:01:40.998Z,1015.72
2024-04-14T03:02:41.356Z,1015.74
2024-04-14T03:03:41.800Z,1015.79
2024-04-14T03:04:42.127Z,1015.78
2024-04-14T03:05:42.423Z,1015.83
2024-04-14T03:06:42.847Z,1015.83
2024-04-14T03:07:43.123Z,1015.86
2024-04-14T03:08:43.507Z,1015.82
2024-04-14T03:09:43.887Z,1015.83
2024-04-14T03:10:44.179Z,1015.85
2024-04-14T03:11:44.535Z,1015.81
2024-04-14T03:12:44.907Z,1015.83
2024-04-14T03:13:45.288Z,1015.76
2024-04-14T03:14:45.631Z,1015.81
2024-04-14T03:15:45.988Z,1015.85
2024-04-14T03:16:46.404Z,1015.79
2024-04-14T03:17:46.728Z,1015.76
2024-04-14T03:18:47.119Z,1015.79
2024-04-14T03:19:47.438Z,1015.82
2024-04-14T03:20:47.789Z,1015.84
2024-04-14T03:21:48.243Z,1015.83
2024-04-14T03:22:48.485Z,1015.90
2024-04-14T03:23:48.860Z,1015.90
2024-04-14T03:24:49.267Z,1015.89
2024-04-14T03:25:49.581Z,1015.95
2024-04-14T03:26:49.961Z,1016.07
2024-04-14T03:27:50.405Z,1016.02
2024-04-14T03:28:50.722Z,1016.19
2024-04-14T03:29:50.998Z,1016.10
2024-04-14T03:30:51.455Z,1016.06
2024-04-14T03:31:51.759Z,1016.10
2024-04-14T03:32:52.143Z,1016.20
2024-04-14T03:33:52.473Z,1016.28
2024-04-14T03:34:52.809Z,1016.23
2024-04-14T03:35:53.166Z,1016.26
2024-04-14T03:36:53.606Z,1016.25
2024-04-14T03:37:53.931Z,1016.26
2024-04-14T03:38:54.275Z,1016.21
2024-04-14T03:39:54.736Z,1016.21
2024-04-14T03:40:54.991Z,1016.26
2024-04-14T03:41:55.331Z,1016.24
2024-04-14T03:42:55.767Z,1016.26
2024-04-14T03:43:56.037Z,1016.39
2024-04-14T03:44:56.414Z,1016.36
2024-04-14T03:45:57.150Z,1016.44
2024-04-14T03:46:56.861Z,1016.35
2024-04-14T03:47:57.093Z,1016.34
2024-04-14T03:48:57.335Z,1016.39
2024-04-14T03:49:57.516Z,1016.35
2024-04-14T03:50:57.821Z,1016.55
2024-04-14T03:51:58.124Z,1016.49
2024-04-14T03:52:58.377Z,1016.42
2024-04-14T03:53:58.659Z,1016.47
2024-04-14T03:54:58.848Z,1016.52
2024-04-14T03:55:59.004Z,1016.49
2024-04-14T03:56:59.285Z,1016.47
2024-04-14T03:57:59.492Z,1016.45
2024-04-14T03:58:59.618Z,1016.45
2024-04-14T03:59:59.911Z,1016.48
2024-04-14T04:01:00.259Z,1016.51
2024-04-14T04:02:00.390Z,1016.47
2024-04-14T04:03:00.599Z,1016.52
2024-04-14T04:04:00.750Z,1016.54
2024-04-14T04:05:00.876Z,1016.52
2024-04-14T04:06:01.056Z,1016.53
2024-04-14T04:07:01.238Z,1016.54
2024-04-14T04:08:03.850Z,1016.54
2024-04-14T04:09:01.677Z,1016.53
2024-04-14T04:10:02.007Z,1016.54
2024-04-14T04:11:02.269Z,1016.61
2024-04-14T04:12:02.410Z,1016.62
2024-04-14T04:13:02.781Z,1016.62
2024-04-14T04:14:02.877Z,1016.64
2024-04-14T04:15:03.062Z,1016.69
2024-04-14T04:16:03.249Z,1016.65
2024-04-14T04:17:03.376Z,1016.62
2024-04-14T04:18:03.700Z,1016.69
2024-04-14T04:19:11.332Z,1016.66
2024-04-14T04:20:04.138Z,1016.67
2024-04-14T04:21:04.203Z,1016.73
2024-04-14T04:22:04.462Z,1016.72
2024-04-14T04:23:04.596Z,1016.68
2024-04-14T04:24:04.835Z,1016.75
2024-04-14T04:25:05.042Z,1016.73
2024-04-14T04:26:05.262Z,1016.75
2024-04-14T04:27:05.516Z,1016.76
2024-04-14T04:28:05.776Z,1016.84
2024-04-14T04:29:05.989Z,1016.74
2024-04-14T04:30:06.288Z,1016.73
2024-04-14T04:31:06.491Z,1016.78
2024-04-14T04:32:06.762Z,1016.77
2024-04-14T04:33:06.993Z,1016.76
2024-04-14T04:34:07.294Z,1016.77
2024-04-14T04:35:07.420Z,1016.78
2024-04-14T04:36:07.712Z,1016.77
2024-04-14T04:37:07.890Z,1016.74
2024-04-14T04:38:08.207Z,1016.77
2024-04-14T04:39:08.380Z,1016.80
2024-04-14T04:40:08.726Z,1016.82
2024-04-14T04:41:08.960Z,1016.79
2024-04-14T04:42:09.238Z,1016.82
2024-04-14T04:43:09.462Z,1016.86
2024-04-14T04:44:09.615Z,1016.89
2024-04-14T04:45:09.799Z,1016.91
2024-04-14T04:46:10.119Z,1016.89
2024-04-14T04:47:10.304Z,1016.91
2024-04-14T04:48:10.713Z,1016.94
2024-04-14T04:49:10.878Z,1016.89
2024-04-14T04:50:11.152Z,1016.93
2024-04-14T04:51:11.333Z,1017.01
2024-04-14T04:52:11.526Z,1016.99
2024-04-14T04:53:11.839Z,1017.06
2024-04-14T04:54:11.984Z,1017.08
2024-04-14T04:55:12.159Z,1017.00
2024-04-14T04:56:12.349Z,1017.02
2024-04-14T04:57:12.513Z,1017.03
2024-04-14T04:58:12.717Z,1017.07
2024-04-14T04:59:12.873Z,1017.12
2024-04-14T05:00:13.038Z,1017.12
2024-04-14T05:01:13.303Z,1017.15
2024-04-14T05:02:13.420Z,1017.11
2024-04-14T05:03:13.748Z,1017.12
2024-04-14T05:04:13.831Z,1017.11
2024-04-14T05:05:13.969Z,1017.10
2024-04-14T05:06:14.117Z,1017.18
2024-04-14T05:07:14.313Z,1017.22
2024-04-14T05:08:14.524Z,1017.26
2024-04-14T05:09:14.673Z,1017.22
2024-04-14T05:10:14.868Z,1017.25
2024-04-14T05:11:15.176Z,1017.28
2024-04-14T05:12:15.245Z,1017.21
2024-04-14T05:13:15.457Z,1017.20
2024-04-14T05:14:15.641Z,1017.24
2024-04-14T05:15:15.822Z,1017.26
2024-04-14T05:16:16.009Z,1017.21
2024-04-14T05:17:16.197Z,1017.31
2024-04-14T05:18:16.470Z,1017.22
2024-04-14T05:19:16.632Z,1017.26
2024-04-14T05:20:16.793Z,1017.29
2024-04-14T05:21:16.992Z,1017.24
2024-04-14T05:22:17.160Z,1017.25
2024-04-14T05:23:17.354Z,1017.35
2024-04-14T05:24:17.545Z,1017.35
2024-04-14T05:25:17.738Z,1017.27
2024-04-14T05:26:17.846Z,1017.31
2024-04-14T05:27:18.075Z,1017.32
2024-04-14T05:28:18.256Z,1017.25
2024-04-14T05:29:18.402Z,1017.29
2024-04-14T05:30:18.664Z,1017.27
2024-04-14T05:31:18.779Z,1017.36
2024-04-14T05:32:18.998Z,1017.35
2024-04-14T05:33:19.193Z,1017.39
2024-04-14T05:34:19.354Z,1017.40
2024-04-14T05:35:19.517Z,1017.41
2024-04-14T05:36:19.710Z,1017.46
2024-04-14T05:37:19.914Z,1017.45
2024-04-14T05:38:20.124Z,1017.48
2024-04-14T05:39:20.283Z,1017.47
2024-04-14T05:40:20.481Z,1017.47
2024-04-14T05:41:20.672Z,1017.54
2024-04-14T05:42:20.843Z,1017.49
2024-04-14T05:43:21.069Z,1017.46
2024-04-14T05:44:21.214Z,1017.40
2024-04-14T05:45:21.380Z,1017.45
2024-04-14T05:46:21.561Z,1017.47
2024-04-14T05:47:21.762Z,1017.52
2024-04-14T05:48:21.979Z,1017.48
2024-04-14T05:49:22.213Z,1017.53
2024-04-14T05:50:22.292Z,1017.58
2024-04-14T05:51:22.474Z,1017.62
2024-04-14T05:52:22.700Z,1017.56
2024-04-14T05:53:22.878Z,1017.51
2024-04-14T05:54:23.051Z,1017.56
2024-04-14T05:55:24.265Z,1017.62
2024-04-14T05:56:23.404Z,1017.67
2024-04-14T05:57:23.576Z,1017.67
2024-04-14T05:58:23.795Z,1017.70
2024-04-14T05:59:23.923Z,1017.68
2024-04-14T06:00:24.121Z,1017.71
2024-04-14T06:01:24.339Z,1017.76
2024-04-14T06:02:24.467Z,1017.77
2024-04-14T06:03:24.761Z,1017.78
2024-04-14T06:04:25.008Z,1017.78
2024-04-14T06:05:25.010Z,1017.76
2024-04-14T06:06:25.209Z,1017.78
2024-04-14T06:07:25.378Z,1017.75
2024-04-14T06:08:25.586Z,1017.78
2024-04-14T06:09:25.763Z,1017.79
2024-04-14T06:10:25.960Z,1017.82
2024-04-14T06:11:26.136Z,1017.70
2024-04-14T06:12:26.365Z,1017.68
2024-04-14T06:13:26.516Z,1017.70
2024-04-14T06:14:26.699Z,1017.70
2024-04-14T06:15:27.017Z,1017.74
2024-04-14T06:16:27.133Z,1017.71
2024-04-14T06:17:27.292Z,1017.91
2024-04-14T06:18:27.485Z,1017.86
2024-04-14T06:19:27.624Z,1017.89
2024-04-14T06:20:27.821Z,1017.97
2024-04-14T06:21:28.046Z,1017.97
2024-04-14T06:22:28.165Z,1017.90
2024-04-14T06:23:28.373Z,1017.90
2024-04-14T06:24:28.575Z,1017.84
2024-04-14T06:25:28.750Z,1017.95
2024-04-14T06:26:28.928Z,1017.86
2024-04-14T06:27:29.152Z,1017.84
2024-04-14T06:28:29.411Z,1017.83
2024-04-14T06:29:29.943Z,1017.87
2024-04-14T06:30:29.759Z,1017.78
2024-04-14T06:31:29.868Z,1017.93
2024-04-14T06:32:30.131Z,1017.86
2024-04-14T06:33:30.346Z,1017.93
2024-04-14T06:34:30.401Z,1017.89
2024-04-14T06:35:30.571Z,1017.87
2024-04-14T06:36:30.813Z,1017.83
2024-04-14T06:37:30.957Z,1017.94
2024-04-14T06:38:31.147Z,1017.89
2024-04-14T06:39:31.326Z,1017.87
2024-04-14T06:40:31.491Z,1017.87
2024-04-14T06:41:31.684Z,1017.92
2024-04-14T06:42:31.942Z,1017.91
2024-04-14T06:43:32.078Z,1017.91
2024-04-14T06:44:32.232Z,1017.95
2024-04-14T06:45:32.444Z,1017.92
2024-04-14T06:46:32.587Z,1017.89
2024-04-14T06:47:35.047Z,1017.89
2024-04-14T06:48:32.997Z,1017.91
2024-04-14T06:49:33.116Z,1017.96
2024-04-14T06:50:33.301Z,1018.03
2024-04-14T06:51:33.511Z,1018.03
2024-04-14T06:52:33.686Z,1018.05
2024-04-14T06:53:33.908Z,1018.06
2024-04-14T06:54:34.177Z,1018.03
2024-04-14T06:55:36.262Z,1017.99
2024-04-14T06:56:34.429Z,1018.03
2024-04-14T06:57:34.640Z,1018.07
2024-04-14T06:58:34.897Z,1018.04
2024-04-14T06:59:34.974Z,1017.97
2024-04-14T07:00:35.307Z,1018.14
2024-04-14T07:01:35.491Z,1018.11
2024-04-14T07:02:35.683Z,1018.13
2024-04-14T07:03:35.803Z,1018.08
2024-04-14T07:04:35.943Z,1018.21
2024-04-14T07:05:36.059Z,1018.10
2024-04-14T07:06:36.262Z,1018.15
2024-04-14T07:07:37.055Z,1018.23
2024-04-14T07:08:36.653Z,1018.22
2024-04-14T07:09:36.814Z,1018.19
2024-04-14T07:10:37.309Z,1018.24
2024-04-14T07:11:37.206Z,1018.22
2024-04-14T07:12:37.385Z,1018.19
2024-04-14T07:13:37.570Z,1018.28
2024-04-14T07:14:37.718Z,1018.31
2024-04-14T07:15:37.927Z,1018.26
2024-04-14T07:16:38.100Z,1018.22
2024-04-14T07:17:38.362Z,1018.26
2024-04-14T07:18:38.626Z,1018.16
2024-04-14T07:19:38.654Z,1018.24
2024-04-14T07:20:38.844Z,1018.21
2024-04-14T07:21:39.065Z,1018.24
2024-04-14T07:22:39.251Z,1018.22
2024-04-14T07:23:39.424Z,1018.21
2024-04-14T07:24:39.590Z,1018.20
2024-04-14T07:25:39.754Z,1018.22
2024-04-14T07:26:39.939Z,1018.23
2024-04-14T07:27:40.123Z,1018.26
2024-04-14T07:28:40.337Z,1018.06
2024-04-14T07:29:40.480Z,1018.26
2024-04-14T07:30:40.999Z,1018.21
2024-04-14T07:31:40.846Z,1018.19
2024-04-14T07:32:41.109Z,1018.10
2024-04-14T07:33:41.288Z,1018.28
2024-04-14T07:34:41.406Z,1018.24
2024-04-14T07:35:41.589Z,1018.31
2024-04-14T07:36:41.791Z,1018.28
2024-04-14T07:37:41.959Z,1018.28
2024-04-14T07:38:42.137Z,1018.35
2024-04-14T07:39:42.306Z,1018.44
2024-04-14T07:40:42.476Z,1018.42
2024-04-14T07:41:42.665Z,1018.55
2024-04-14T07:42:42.963Z,1018.53
2024-04-14T07:43:43.083Z,1018.52
2024-04-14T07:44:43.220Z,1018.54
2024-04-14T07:45:43.446Z,1018.62
2024-04-14T07:46:43.621Z,1018.50
2024-04-14T07:47:45.014Z,1018.53
2024-04-14T07:48:44.061Z,1018.59
2024-04-14T07:49:44.130Z,1018.54
2024-04-14T07:50:44.342Z,1018.50
2024-04-14T07:51:44.534Z,1018.66
2024-04-14T07:52:44.726Z,1018.58
2024-04-14T07:53:44.875Z,1018.53
2024-04-14T07:54:45.111Z,1018.52
2024-04-14T07:55:45.266Z,1018.58
2024-04-14T07:56:45.453Z,1018.55
2024-04-14T07:57:45.691Z,1018.57
2024-04-14T07:58:45.874Z,1018.49
2024-04-14T07:59:46.704Z,1018.55
2024-04-14T08:00:46.207Z,1018.59
2024-04-14T08:01:46.385Z,1018.50
2024-04-14T08:02:46.545Z,1018.51
2024-04-14T08:03:53.451Z,1018.50
2024-04-14T08:04:46.950Z,1018.56
2024-04-14T08:05:47.055Z,1018.51
2024-04-14T08:06:47.312Z,1018.60
2024-04-14T08:07:47.450Z,1018.56
2024-04-14T08:08:47.684Z,1018.59
2024-04-14T08:09:47.834Z,1018.55
2024-04-14T08:10:48.010Z,1018.57
2024-04-14T08:11:48.167Z,1018.61
2024-04-14T08:12:48.506Z,1018.66
2024-04-14T08:13:48.581Z,1018.59
2024-04-14T08:14:48.732Z,1018.72
2024-04-14T08:15:48.949Z,1018.52
2024-04-14T08:16:49.170Z,1018.59
2024-04-14T08:17:49.284Z,1018.60
2024-04-14T08:18:49.494Z,1018.58
2024-04-14T08:19:49.635Z,1018.65
2024-04-14T08:20:49.830Z,1018.61
2024-04-14T08:21:50.061Z,1018.63
2024-04-14T08:22:50.235Z,1018.59
2024-04-14T08:23:50.473Z,1018.62
2024-04-14T08:24:50.622Z,1018.70
2024-04-14T08:25:50.795Z,1018.76
2024-04-14T08:26:50.984Z,1018.62
2024-04-14T08:27:51.191Z,1018.68
2024-04-14T08:28:51.400Z,1018.71
2024-04-14T08:29:51.543Z,1018.72
2024-04-14T08:30:51.764Z,1018.69
2024-04-14T08:31:52.173Z,1018.71
2024-04-14T08:32:52.175Z,1018.94
2024-04-14T08:33:52.347Z,1018.67
2024-04-14T08:34:52.434Z,1018.70
2024-04-14T08:35:52.627Z,1018.68
2024-04-14T08:36:52.846Z,1018.70
2024-04-14T08:37:52.988Z,1018.60
2024-04-14T08:38:53.191Z,1018.78
2024-04-14T08:39:53.390Z,1018.76
2024-04-14T08:40:53.531Z,1018.72
2024-04-14T08:41:53.727Z,1018.64
2024-04-14T08:42:53.930Z,1018.90
2024-04-14T08:43:54.128Z,1018.81
2024-04-14T08:44:54.295Z,1018.87
2024-04-14T08:45:54.598Z,1018.96
2024-04-14T08:46:54.704Z,1018.80
2024-04-14T08:47:54.889Z,1018.81
2024-04-14T08:48:55.092Z,1018.71
2024-04-14T08:49:55.270Z,1018.72
2024-04-14T08:50:55.408Z,1018.79
2024-04-14T08:51:55.745Z,1018.78
2024-04-14T08:52:55.772Z,1018.79
2024-04-14T08:53:58.378Z,1018.84
2024-04-14T08:54:56.165Z,1018.90
2024-04-14T08:55:56.338Z,1018.83
2024-04-14T08:56:56.546Z,1018.80
2024-04-14T08:57:56.770Z,1018.87
2024-04-14T08:58:56.921Z,1018.91
2024-04-14T08:59:57.083Z,1018.89
2024-04-14T09:00:57.296Z,1018.88
2024-04-14T09:01:57.507Z,1018.87
2024-04-14T09:02:57.641Z,1018.89
2024-04-14T09:03:57.903Z,1018.86
2024-04-14T09:04:57.981Z,1018.87
2024-04-14T09:05:58.225Z,1018.90
2024-04-14T09:06:58.380Z,1018.86
2024-04-14T09:07:58.519Z,1018.85
2024-04-14T09:08:58.687Z,1018.96
2024-04-14T09:09:58.876Z,1018.78
2024-04-14T09:10:59.042Z,1018.99
2024-04-14T09:11:59.215Z,1018.90
2024-04-14T09:12:59.465Z,1018.96
2024-04-14T09:13:59.624Z,1018.98
2024-04-14T09:14:59.782Z,1018.98
2024-04-14T09:16:00.027Z,1019.31
2024-04-14T09:17:00.152Z,1018.93
2024-04-14T09:18:00.441Z,1019.04
2024-04-14T09:19:00.617Z,1019.10
2024-04-14T09:20:00.684Z,1019.11
2024-04-14T09:21:00.857Z,1018.96
2024-04-14T09:22:01.119Z,1019.01
2024-04-14T09:23:01.253Z,1019.02
2024-04-14T09:24:01.424Z,1018.96
2024-04-14T09:25:01.677Z,1019.07
2024-04-14T09:26:01.776Z,1018.97
2024-04-14T09:27:01.974Z,1018.93
2024-04-14T09:28:02.258Z,1019.04
2024-04-14T09:29:02.390Z,1018.98
2024-04-14T09:30:02.542Z,1019.07
2024-04-14T09:31:02.757Z,1018.95
2024-04-14T09:32:05.676Z,1019.03
2024-04-14T09:33:03.174Z,1019.01
2024-04-14T09:34:03.361Z,1019.15
2024-04-14T09:35:03.464Z,1019.01
2024-04-14T09:36:03.651Z,1018.91
2024-04-14T09:37:03.956Z,1018.95
2024-04-14T09:38:04.080Z,1018.97
2024-04-14T09:39:04.217Z,1019.02
2024-04-14T09:40:04.539Z,1019.03
2024-04-14T09:41:04.579Z,1019.05
2024-04-14T09:42:04.761Z,1018.99
2024-04-14T09:43:05.013Z,1019.08
2024-04-14T09:44:05.179Z,1019.17
2024-04-14T09:45:05.331Z,1019.12
2024-04-14T09:46:05.637Z,1019.10
2024-04-14T09:47:05.727Z,1019.14
2024-04-14T09:48:05.913Z,1018.98
2024-04-14T09:49:06.288Z,1019.10
2024-04-14T09:50:06.231Z,1019.11
2024-04-14T09:51:06.524Z,1019.14
2024-04-14T09:52:06.704Z,1019.06
2024-04-14T09:53:06.797Z,1019.00
2024-04-14T09:54:07.004Z,1019.11
2024-04-14T09:55:07.224Z,1019.21
2024-04-14T09:56:07.370Z,1019.25
2024-04-14T09:57:07.550Z,1019.22
2024-04-14T09:58:07.834Z,1019.14
2024-04-14T09:59:07.994Z,1019.19
2024-04-14T10:00:08.270Z,1019.07
2024-04-14T10:01:08.455Z,1019.08
2024-04-14T10:02:08.562Z,1019.14
2024-04-14T10:03:08.735Z,1019.12
2024-04-14T10:04:09.094Z,1019.11
2024-04-14T10:05:09.075Z,1019.10
2024-04-14T10:06:09.303Z,1019.15
2024-04-14T10:07:09.474Z,1019.14
2024-04-14T10:08:09.650Z,1019.07
2024-04-14T10:09:09.846Z,1019.16
2024-04-14T10:10:10.091Z,1019.15
2024-04-14T10:11:10.214Z,1019.07
2024-04-14T10:12:10.372Z,1019.08
2024-04-14T10:13:10.573Z,1019.14
2024-04-14T10:14:10.765Z,1019.20
2024-04-14T10:15:10.941Z,1019.11
2024-04-14T10:16:11.268Z,1019.15
2024-04-14T10:17:11.301Z,1018.97
2024-04-14T10:18:11.496Z,1019.15
2024-04-14T10:19:11.707Z,1019.01
2024-04-14T10:20:11.866Z,1019.21
2024-04-14T10:21:12.036Z,1019.09
2024-04-14T10:22:12.276Z,1019.02
2024-04-14T10:23:12.424Z,1019.18
2024-04-14T10:24:12.589Z,1019.12
2024-04-14T10:25:12.798Z,1019.21
2024-04-14T10:26:12.937Z,1019.20
2024-04-14T10:27:13.107Z,1019.21
2024-04-14T10:28:13.316Z,1019.32
2024-04-14T10:29:13.519Z,1019.33
2024-04-14T10:30:13.684Z,1019.37
2024-04-14T10:31:13.900Z,1019.39
2024-04-14T10:32:14.071Z,1019.24
2024-04-14T10:33:14.406Z,1019.19
2024-04-14T10:34:14.569Z,1019.00
2024-04-14T10:35:14.651Z,1019.09
2024-04-14T10:36:14.834Z,1019.01
2024-04-14T10:37:15.048Z,1019.37
2024-04-14T10:38:15.246Z,1019.42
2024-04-14T10:39:15.537Z,1019.14
2024-04-14T10:40:15.618Z,1019.35
2024-04-14T10:41:15.831Z,1019.04
2024-04-14T10:42:16.006Z,1019.24
2024-04-14T10:43:16.310Z,1019.29
2024-04-14T10:44:16.463Z,1019.39
2024-04-14T10:45:16.613Z,1019.07
2024-04-14T10:46:16.883Z,1019.06
2024-04-14T10:47:17.092Z,1019.10
2024-04-14T10:48:17.236Z,1019.01
2024-04-14T10:49:17.458Z,1018.94
2024-04-14T10:50:17.633Z,1018.99
2024-04-14T10:51:17.806Z,1019.10
2024-04-14T10:52:17.995Z,1018.95
2024-04-14T10:53:18.178Z,1019.07
2024-04-14T10:54:18.415Z,1018.96
2024-04-14T10:55:18.608Z,1019.18
2024-04-14T10:56:18.764Z,1018.91
2024-04-14T10:57:18.940Z,1019.01
2024-04-14T10:58:19.135Z,1018.89
2024-04-14T10:59:19.367Z,1018.96
2024-04-14T11:00:19.534Z,1018.93
2024-04-14T11:01:19.802Z,1018.93
2024-04-14T11:02:19.928Z,1018.99
2024-04-14T11:03:20.164Z,1018.96
2024-04-14T11:04:20.419Z,1018.94
2024-04-14T11:05:20.481Z,1018.85
2024-04-14T11:06:20.666Z,1018.97
2024-04-14T11:07:20.864Z,1018.87
2024-04-14T11:08:21.096Z,1019.05
2024-04-14T11:09:21.341Z,1018.84
2024-04-14T11:10:21.491Z,1018.86
2024-04-14T11:11:21.766Z,1018.95
2024-04-14T11:12:21.842Z,1018.95
2024-04-14T11:13:22.057Z,1019.09
2024-04-14T11:14:22.293Z,1019.07
2024-04-14T11:15:22.441Z,1019.01
2024-04-14T11:16:22.782Z,1018.87
2024-04-14T11:17:22.828Z,1019.21
2024-04-14T11:18:23.004Z,1019.00
2024-04-14T11:19:23.232Z,1018.96
2024-04-14T11:20:23.380Z,1018.91
2024-04-14T11:21:23.571Z,1018.78
2024-04-14T11:22:23.790Z,1018.77
2024-04-14T11:23:24.005Z,1018.83
2024-04-14T11:24:24.258Z,1018.63
2024-04-14T11:25:24.429Z,1018.74
2024-04-14T11:26:24.618Z,1018.62
2024-04-14T11:27:24.796Z,1018.83
2024-04-14T11:28:25.063Z,1019.00
2024-04-14T11:29:25.198Z,1018.92
2024-04-14T11:30:25.385Z,1018.89
2024-04-14T11:31:25.585Z,1018.89
2024-04-14T11:32:25.850Z,1018.80
2024-04-14T11:33:26.120Z,1018.73
2024-04-14T11:34:26.291Z,1018.71
2024-04-14T11:35:26.451Z,1018.87
2024-04-14T11:36:26.666Z,1018.76
2024-04-14T11:37:26.872Z,1018.67
2024-04-14T11:38:27.096Z,1018.56
2024-04-14T11:39:27.286Z,1018.72
2024-04-14T11:40:27.487Z,1018.38
2024-04-14T11:41:27.659Z,1018.88
2024-04-14T11:42:27.867Z,1018.74
2024-04-14T11:43:28.059Z,1018.88
2024-04-14T11:44:28.298Z,1018.78
2024-04-14T11:45:28.585Z,1018.69
2024-04-14T11:46:28.714Z,1018.98
2024-04-14T11:47:28.960Z,1018.72
2024-04-14T11:48:29.135Z,1018.72
2024-04-14T11:49:29.347Z,1018.80
2024-04-14T11:50:29.505Z,1018.74
2024-04-14T11:51:29.762Z,1018.84
2024-04-14T11:52:29.918Z,1018.74
2024-04-14T11:53:30.110Z,1018.81
2024-04-14T11:54:30.355Z,1018.83
2024-04-14T11:55:30.507Z,1018.84
2024-04-14T11:56:30.708Z,1018.95
2024-04-14T11:57:30.993Z,1018.85
2024-04-14T11:58:31.145Z,1019.01
2024-04-14T11:59:31.398Z,1018.84
2024-04-14T12:00:31.577Z,1018.67
2024-04-14T12:01:31.826Z,1018.80
2024-04-14T12:02:32.035Z,1018.67
2024-04-14T12:03:32.106Z,1018.62
2024-04-14T12:04:32.368Z,1018.76
2024-04-14T12:05:32.465Z,1018.68
2024-04-14T12:06:32.665Z,1018.69
2024-04-14T12:07:32.829Z,1018.66
2024-04-14T12:08:33.027Z,1018.72